createdAt,value
2018-09-06T00:01:13.600Z,34.47
2018-09-06T00:03:40.956Z,29.83
2018-09-06T00:06:08.292Z,36.57
2018-09-06T00:08:35.630Z,35.17
2018-09-06T00:11:02.980Z,40.27
2018-09-06T00:13:30.335Z,37.13
2018-09-06T00:15:57.783Z,37.73
2018-09-06T00:18:25.136Z,38.17
2018-09-06T00:20:52.543Z,42.60
2018-09-06T00:23:19.923Z,42.63
2018-09-06T00:25:47.252Z,41.43
2018-09-06T00:28:14.584Z,42.00
2018-09-06T00:30:41.924Z,40.80
2018-09-06T00:33:09.313Z,40.63
2018-09-06T00:35:36.669Z,40.67
2018-09-06T00:38:04.030Z,44.93
2018-09-06T00:40:31.373Z,44.50
2018-09-06T00:42:58.740Z,50.60
2018-09-06T00:45:26.109Z,41.60
2018-09-06T00:47:53.470Z,45.93
2018-09-06T00:50:21.613Z,44.17
2018-09-06T00:52:50.048Z,46.13
2018-09-06T00:55:17.958Z,46.40
2018-09-06T00:57:45.324Z,47.13
2018-09-06T01:00:12.884Z,44.77
2018-09-06T01:02:40.252Z,46.10
2018-09-06T01:05:07.694Z,49.70
2018-09-06T01:07:35.277Z,46.33
2018-09-06T01:10:02.760Z,42.57
2018-09-06T01:12:30.117Z,48.20
2018-09-06T01:14:57.482Z,42.40
2018-09-06T01:17:24.823Z,53.53
2018-09-06T01:19:52.213Z,48.23
2018-09-06T01:22:19.571Z,54.47
2018-09-06T01:24:46.904Z,52.70
2018-09-06T01:27:14.248Z,50.37
2018-09-06T01:29:41.564Z,51.80
2018-09-06T01:32:08.912Z,42.50
2018-09-06T01:34:36.416Z,53.37
2018-09-06T01:37:06.538Z,57.07
2018-09-06T01:39:34.613Z,50.67
2018-09-06T01:42:02.080Z,46.80
2018-09-06T01:44:29.415Z,41.67
2018-09-06T01:46:56.776Z,49.37
2018-09-06T01:49:24.083Z,41.73
2018-09-06T01:51:51.440Z,45.50
2018-09-06T01:54:18.778Z,47.20
2018-09-06T01:56:46.132Z,34.93
2018-09-06T01:59:14.008Z,36.10
2018-09-06T02:01:41.815Z,34.67
2018-09-06T02:04:09.791Z,36.40
2018-09-06T02:06:37.202Z,39.70
2018-09-06T02:09:06.659Z,28.23
2018-09-06T02:11:34.238Z,37.90
2018-09-06T02:14:01.660Z,36.87
2018-09-06T02:16:28.983Z,28.97
2018-09-06T02:18:56.327Z,35.97
2018-09-06T02:21:23.694Z,37.13
2018-09-06T02:23:51.057Z,34.03
2018-09-06T02:26:18.418Z,37.67
2018-09-06T02:28:45.787Z,35.50
2018-09-06T02:31:13.111Z,30.00
2018-09-06T02:33:40.448Z,33.50
2018-09-06T02:36:07.803Z,33.83
2018-09-06T02:38:35.145Z,33.50
2018-09-06T02:41:02.602Z,36.67
2018-09-06T02:43:29.980Z,40.87
2018-09-06T02:45:57.304Z,41.70
2018-09-06T02:48:30.356Z,42.57
2018-09-06T02:51:03.509Z,34.07
2018-09-06T02:53:31.850Z,33.47
2018-09-06T02:55:59.241Z,29.33
2018-09-06T02:58:26.567Z,32.00
2018-09-06T03:00:53.892Z,34.20
2018-09-06T03:03:21.225Z,34.03
2018-09-06T03:05:48.590Z,24.13
2018-09-06T03:08:15.926Z,28.20
2018-09-06T03:10:45.025Z,27.13
2018-09-06T03:13:12.383Z,34.57
2018-09-06T03:15:39.724Z,31.23
2018-09-06T03:18:07.071Z,31.50
2018-09-06T03:20:34.600Z,37.30
2018-09-06T03:23:02.889Z,30.97
2018-09-06T03:25:30.226Z,26.17
2018-09-06T03:27:57.603Z,29.40
2018-09-06T03:30:24.936Z,30.70
2018-09-06T03:32:52.260Z,36.40
2018-09-06T03:35:19.673Z,21.20
2018-09-06T03:37:47.044Z,32.03
2018-09-06T03:40:14.379Z,28.87
2018-09-06T03:42:41.736Z,35.90
2018-09-06T03:45:09.128Z,33.07
2018-09-06T03:47:36.443Z,23.73
2018-09-06T03:50:03.770Z,26.27
2018-09-06T03:52:31.151Z,31.77
2018-09-06T03:54:58.613Z,28.60
2018-09-06T03:57:25.990Z,28.83
2018-09-06T03:59:53.318Z,23.00
2018-09-06T04:02:20.675Z,24.70
2018-09-06T04:04:48.071Z,20.07
2018-09-06T04:07:15.432Z,21.40
2018-09-06T04:09:42.811Z,16.27
2018-09-06T04:12:10.186Z,18.20
2018-09-06T04:14:37.507Z,17.33
2018-09-06T04:17:07.170Z,15.13
2018-09-06T04:19:34.482Z,18.47
2018-09-06T04:22:01.823Z,15.30
2018-09-06T04:24:29.211Z,21.97
2018-09-06T04:26:56.558Z,20.80
2018-09-06T04:29:23.894Z,15.73
2018-09-06T04:31:51.220Z,20.57
2018-09-06T04:34:18.602Z,14.07
2018-09-06T04:36:45.920Z,14.57
2018-09-06T04:39:13.281Z,13.87
2018-09-06T04:41:40.654Z,15.07
2018-09-06T04:44:08.062Z,19.20
2018-09-06T04:46:35.700Z,14.53
2018-09-06T04:49:03.460Z,11.53
2018-09-06T04:51:30.792Z,15.00
2018-09-06T04:53:58.152Z,13.87
2018-09-06T04:56:25.626Z,15.10
2018-09-06T04:58:53.747Z,10.90
2018-09-06T05:01:21.125Z,12.80
2018-09-06T05:03:48.518Z,16.23
2018-09-06T05:06:16.040Z,17.00
2018-09-06T05:08:43.368Z,19.00
2018-09-06T05:11:10.719Z,15.30
2018-09-06T05:13:38.063Z,14.90
2018-09-06T05:16:05.399Z,13.27
2018-09-06T05:18:32.804Z,16.23
2018-09-06T05:21:00.179Z,15.40
2018-09-06T05:23:27.568Z,14.57
2018-09-06T05:25:54.919Z,20.17
2018-09-06T05:28:22.253Z,22.83
2018-09-06T05:30:49.645Z,15.90
2018-09-06T05:33:16.935Z,19.10
2018-09-06T05:35:44.290Z,20.53
2018-09-06T05:38:11.803Z,17.13
2018-09-06T05:40:39.133Z,17.93
2018-09-06T05:43:06.480Z,17.70
2018-09-06T05:45:33.828Z,14.20
2018-09-06T05:48:01.157Z,15.63
2018-09-06T05:50:29.906Z,15.40
2018-09-06T05:52:58.080Z,17.83
2018-09-06T05:55:25.440Z,15.67
2018-09-06T05:57:52.979Z,14.80
2018-09-06T06:00:26.054Z,19.67
2018-09-06T06:02:54.566Z,19.73
2018-09-06T06:05:22.055Z,17.10
2018-09-06T06:08:01.129Z,16.63
2018-09-06T06:10:28.446Z,18.03
2018-09-06T06:15:36.266Z,11.87
2018-09-06T06:18:03.931Z,10.83
2018-09-06T06:20:31.595Z,9.50
2018-09-06T06:22:58.940Z,15.07
2018-09-06T06:25:26.304Z,13.83
2018-09-06T06:27:53.647Z,10.87
2018-09-06T06:30:20.999Z,13.83
2018-09-06T06:32:48.331Z,13.00
2018-09-06T06:35:15.667Z,12.37
2018-09-06T06:37:43.005Z,13.27
2018-09-06T06:40:10.354Z,12.83
2018-09-06T06:42:37.693Z,16.17
2018-09-06T06:45:05.032Z,12.50
2018-09-06T06:47:32.370Z,11.47
2018-09-06T06:49:59.763Z,15.53
2018-09-06T06:52:27.092Z,17.73
2018-09-06T06:54:54.409Z,15.17
2018-09-06T06:57:21.731Z,17.77
2018-09-06T06:59:49.063Z,13.87
2018-09-06T07:02:16.431Z,13.50
2018-09-06T07:04:43.782Z,11.90
2018-09-06T07:07:11.185Z,10.73
2018-09-06T07:09:38.531Z,13.53
2018-09-06T07:12:05.842Z,10.50
2018-09-06T07:14:33.176Z,12.10
2018-09-06T07:17:01.090Z,14.97
2018-09-06T07:19:28.620Z,14.03
2018-09-06T07:21:55.972Z,14.83
2018-09-06T07:24:23.323Z,12.53
2018-09-06T07:26:50.664Z,9.87
2018-09-06T07:29:18.022Z,12.93
2018-09-06T07:31:45.376Z,14.17
2018-09-06T07:34:12.710Z,15.13
2018-09-06T07:36:40.053Z,13.03
2018-09-06T07:39:08.082Z,16.50
2018-09-06T07:41:35.588Z,16.60
2018-09-06T07:44:03.101Z,13.30
2018-09-06T07:46:30.688Z,8.33
2018-09-06T07:48:58.037Z,12.37
2018-09-06T07:51:25.391Z,11.70
2018-09-06T07:53:52.716Z,12.13
2018-09-06T07:56:20.083Z,14.17
2018-09-06T07:58:47.770Z,16.27
2018-09-06T08:01:15.109Z,60.77
2018-09-06T08:03:42.458Z,9.37
2018-09-06T08:06:09.775Z,11.23
2018-09-06T08:08:37.107Z,12.90
2018-09-06T08:11:04.637Z,8.13
2018-09-06T08:13:31.981Z,11.53
2018-09-06T08:15:59.324Z,8.77
2018-09-06T08:18:26.679Z,6.80
2018-09-06T08:20:54.093Z,11.93
2018-09-06T08:23:21.412Z,7.57
2018-09-06T08:25:48.888Z,9.23
2018-09-06T08:28:16.195Z,7.93
2018-09-06T08:30:43.751Z,7.80
2018-09-06T08:33:11.066Z,8.73
2018-09-06T08:35:38.415Z,8.60
2018-09-06T08:38:06.004Z,9.87
2018-09-06T08:40:33.353Z,7.80
2018-09-06T08:43:00.703Z,11.07
2018-09-06T08:45:28.185Z,8.87
2018-09-06T08:47:55.483Z,6.77
2018-09-06T08:50:22.821Z,11.80
2018-09-06T08:52:50.157Z,11.67
2018-09-06T08:55:17.496Z,9.43
2018-09-06T09:00:14.298Z,9.20
2018-09-06T09:02:41.743Z,8.40
2018-09-06T09:05:09.009Z,8.07
2018-09-06T09:07:36.388Z,8.70
2018-09-06T09:10:03.832Z,9.00
2018-09-06T09:12:31.249Z,10.83
2018-09-06T09:14:58.535Z,9.47
2018-09-06T09:17:25.882Z,7.40
2018-09-06T09:19:53.360Z,8.97
2018-09-06T09:22:20.763Z,8.37
2018-09-06T09:24:48.089Z,8.00
2018-09-06T09:27:15.420Z,10.13
2018-09-06T09:29:42.766Z,7.63
2018-09-06T09:32:10.097Z,11.03
2018-09-06T09:34:37.460Z,7.33
2018-09-06T09:37:04.795Z,8.07
2018-09-06T09:39:32.163Z,7.80
2018-09-06T09:41:59.540Z,9.30
2018-09-06T09:44:26.872Z,9.40
2018-09-06T09:49:21.115Z,9.40
2018-09-06T09:51:48.435Z,6.63
2018-09-06T09:54:15.778Z,11.30
2018-09-06T09:56:43.132Z,10.23
2018-09-06T09:59:10.480Z,9.17
2018-09-06T10:01:47.223Z,7.73
2018-09-06T10:04:20.971Z,7.60
2018-09-06T10:06:54.000Z,8.13
2018-09-06T10:09:24.132Z,6.90
2018-09-06T10:11:51.455Z,8.00
2018-09-06T10:14:18.801Z,10.50
2018-09-06T10:16:46.431Z,8.13
2018-09-06T10:19:13.778Z,8.63
2018-09-06T10:21:41.152Z,8.93
2018-09-06T10:24:08.700Z,8.67
2018-09-06T10:26:36.404Z,11.80
2018-09-06T10:29:03.759Z,7.93
2018-09-06T10:31:31.467Z,11.17
2018-09-06T10:33:58.797Z,9.13
2018-09-06T10:36:26.119Z,8.33
2018-09-06T10:38:53.485Z,7.40
2018-09-06T10:41:20.812Z,6.37
2018-09-06T10:43:48.188Z,12.10
2018-09-06T10:46:15.749Z,15.03
2018-09-06T10:48:43.081Z,5.13
2018-09-06T10:51:10.555Z,5.27
2018-09-06T10:53:37.924Z,6.30
2018-09-06T10:56:05.300Z,7.33
2018-09-06T10:58:32.862Z,8.27
2018-09-06T11:01:05.947Z,5.83
2018-09-06T11:03:33.300Z,6.00
2018-09-06T11:06:00.713Z,5.10
2018-09-06T11:08:28.147Z,5.37
2018-09-06T11:10:55.483Z,5.37
2018-09-06T11:13:22.881Z,8.83
2018-09-06T11:15:50.231Z,4.67
2018-09-06T11:18:17.590Z,4.83
2018-09-06T11:20:44.985Z,6.20
2018-09-06T11:23:12.325Z,6.13
2018-09-06T11:25:39.659Z,5.67
2018-09-06T11:28:07.348Z,6.93
2018-09-06T11:30:34.680Z,7.17
2018-09-06T11:33:02.055Z,6.57
2018-09-06T11:35:29.385Z,9.17
2018-09-06T11:37:56.717Z,5.83
2018-09-06T11:40:24.080Z,7.97
2018-09-06T11:42:51.376Z,6.93
2018-09-06T11:45:18.728Z,8.57
2018-09-06T11:47:46.177Z,7.47
2018-09-06T11:50:13.471Z,10.07
2018-09-06T11:52:40.823Z,7.40
2018-09-06T11:55:08.197Z,7.03
2018-09-06T11:57:35.555Z,6.60
2018-09-06T12:00:02.936Z,8.63
2018-09-06T12:02:30.260Z,6.87
2018-09-06T12:04:57.603Z,10.70
2018-09-06T12:07:24.915Z,5.93
2018-09-06T12:09:52.244Z,6.60
2018-09-06T12:12:19.550Z,7.53
2018-09-06T12:14:46.877Z,9.83
2018-09-06T12:17:14.209Z,4.57
2018-09-06T12:19:41.905Z,6.83
2018-09-06T12:22:09.265Z,7.43
2018-09-06T12:24:36.639Z,8.80
2018-09-06T12:27:03.963Z,10.47
2018-09-06T12:29:31.310Z,9.67
2018-09-06T12:31:58.615Z,7.50
2018-09-06T12:34:25.924Z,10.23
2018-09-06T12:36:53.260Z,7.20
2018-09-06T12:39:20.616Z,9.47
2018-09-06T12:41:48.004Z,5.93
2018-09-06T12:44:15.359Z,7.13
2018-09-06T12:46:43.710Z,7.60
2018-09-06T12:49:11.044Z,10.00
2018-09-06T12:51:38.366Z,9.40
2018-09-06T12:54:05.720Z,8.13
2018-09-06T12:56:33.113Z,3.20
2018-09-06T12:59:00.422Z,5.30
2018-09-06T13:01:27.738Z,7.57
2018-09-06T13:03:55.080Z,5.53
2018-09-06T13:06:22.445Z,3.53
2018-09-06T13:08:49.752Z,5.93
2018-09-06T13:11:17.155Z,5.00
2018-09-06T13:13:44.532Z,3.00
2018-09-06T13:16:11.866Z,4.33
2018-09-06T13:18:39.298Z,6.70
2018-09-06T13:21:06.594Z,4.40
2018-09-06T13:23:33.932Z,6.90
2018-09-06T13:26:01.267Z,7.63
2018-09-06T13:28:29.051Z,10.33
2018-09-06T13:30:56.369Z,8.93
2018-09-06T13:33:23.683Z,10.73
2018-09-06T13:35:50.982Z,10.83
2018-09-06T13:38:18.328Z,12.13
2018-09-06T13:40:45.648Z,8.93
2018-09-06T13:43:12.955Z,11.33
2018-09-06T13:45:40.322Z,12.10
2018-09-06T13:48:07.676Z,11.67
2018-09-06T13:50:35.043Z,7.10
2018-09-06T13:53:02.368Z,7.90
2018-09-06T13:55:29.695Z,7.63
2018-09-06T13:57:57.050Z,5.60
2018-09-06T14:00:24.387Z,6.97
2018-09-06T14:02:52.412Z,6.70
2018-09-06T14:05:20.744Z,7.50
2018-09-06T14:07:48.058Z,9.80
2018-09-06T14:10:15.374Z,6.63
2018-09-06T14:12:42.744Z,7.20
2018-09-06T14:15:10.091Z,8.40
2018-09-06T14:17:37.443Z,7.37
2018-09-06T14:20:04.780Z,6.37
2018-09-06T14:22:32.240Z,5.90
2018-09-06T14:24:59.620Z,9.93
2018-09-06T14:27:27.007Z,5.37
2018-09-06T14:29:54.360Z,12.27
2018-09-06T14:32:21.699Z,12.10
2018-09-06T14:34:49.027Z,10.03
2018-09-06T14:37:16.348Z,8.03
2018-09-06T14:39:43.692Z,7.30
2018-09-06T14:42:11.015Z,3.57
2018-09-06T14:44:38.383Z,11.20
2018-09-06T14:47:05.725Z,5.63
2018-09-06T14:49:33.199Z,9.43
2018-09-06T14:52:00.583Z,5.60
2018-09-06T14:54:27.908Z,11.77
2018-09-06T14:56:55.226Z,6.40
2018-09-06T14:59:22.596Z,9.13
2018-09-06T15:01:49.985Z,5.60
2018-09-06T15:04:17.385Z,7.97
2018-09-06T15:06:44.723Z,6.00
2018-09-06T15:09:12.039Z,10.73
2018-09-06T15:11:39.387Z,8.07
2018-09-06T15:14:06.852Z,7.50
2018-09-06T15:16:34.342Z,28.60
2018-09-06T15:19:01.847Z,13.27
2018-09-06T15:21:29.365Z,9.03
2018-09-06T15:23:56.715Z,9.27
2018-09-06T15:26:24.052Z,8.07
2018-09-06T15:28:51.376Z,7.00
2018-09-06T15:31:18.691Z,4.93
2018-09-06T15:33:46.014Z,7.10
2018-09-06T15:36:13.332Z,6.13
2018-09-06T15:38:40.732Z,7.70
2018-09-06T15:41:08.082Z,6.30
2018-09-06T15:43:35.436Z,5.53
2018-09-06T15:46:02.823Z,9.23
2018-09-06T15:48:30.155Z,8.07
2018-09-06T15:50:57.491Z,13.27
2018-09-06T15:53:24.819Z,5.23
2018-09-06T15:55:52.243Z,5.67
2018-09-06T15:58:19.532Z,5.37
2018-09-06T16:00:46.891Z,7.57
2018-09-06T16:03:14.259Z,8.90
2018-09-06T16:05:42.206Z,7.90
2018-09-06T16:08:09.581Z,5.00
2018-09-06T16:10:36.945Z,4.60
2018-09-06T16:13:04.295Z,5.80
2018-09-06T16:15:31.618Z,7.87
2018-09-06T16:17:59.015Z,6.80
2018-09-06T16:20:26.338Z,8.67
2018-09-06T16:22:53.782Z,5.93
2018-09-06T16:25:21.109Z,7.83
2018-09-06T16:27:48.455Z,6.53
2018-09-06T16:30:15.909Z,9.23
2018-09-06T16:32:43.211Z,7.77
2018-09-06T16:35:10.550Z,10.87
2018-09-06T16:37:37.879Z,7.03
2018-09-06T16:40:05.232Z,6.53
2018-09-06T16:42:32.582Z,6.17
2018-09-06T16:44:59.904Z,5.57
2018-09-06T16:47:27.259Z,6.40
2018-09-06T16:49:54.608Z,9.63
2018-09-06T16:52:22.013Z,13.03
2018-09-06T16:54:49.302Z,5.77
2018-09-06T16:57:16.615Z,6.90
2018-09-06T16:59:43.967Z,7.07
2018-09-06T17:02:11.300Z,4.63
2018-09-06T17:04:38.667Z,6.93
2018-09-06T17:07:05.980Z,8.40
2018-09-06T17:09:33.306Z,10.43
2018-09-06T17:12:00.638Z,9.53
2018-09-06T17:14:27.967Z,7.17
2018-09-06T17:16:55.284Z,6.33
2018-09-06T17:19:22.593Z,38.73
2018-09-06T17:21:49.951Z,8.37
2018-09-06T17:24:17.251Z,8.97
2018-09-06T17:26:44.584Z,5.60
2018-09-06T17:29:11.918Z,6.23
2018-09-06T17:31:39.232Z,6.10
